Terminal Aerodrome Forecast
Issued by NWS

Home | Current Version | Previous Version | Text Only | Print | Product List | Glossary On
Versions: 1 2 3 4 5 6 7 8 9 10 11 12 13 14 15 16 17
000
FTUS42 KMLB 170100 AAA
TAFSUA
TAF AMD
KSUA 170140Z 1702/1724 32007KT P6SM VCTS SCT035CB BKN070 BKN120
      TEMPO 1702/1704 -TSRA BKN035CB
     FM170400 27003KT P6SM SCT080 OVC150
     FM171400 26006KT P6SM FEW020 SCT120 BKN250
     FM171900 27007KT P6SM VCTS SCT040CB BKN100=

USA.gov is the U.S. government's official web portal to all federal, state and local government web resources and services.